Time;durP1;ratioP1;P1;durP2;ratioP2;P2;SDS_P1;SDS_P2;PMS_P1;PMS_P2;Temp;Humidity;BMP_temperature;BMP_pressure;BME280_temperature;BME280_humidity;BME280_pressure;Samples;Min_cycle;Max_cycle;Signal;HPM_P1;HPM_P2
2022/02/20 00:02:05;;;;;;;0.00;0.00;;;7.20;99.90;;;;;;5069713;28;20029;-70
2022/02/20 00:04:30;;;;;;;0.00;0.00;;;7.20;99.90;;;;;;5071215;28;20052;-70
2022/02/20 00:06:56;;;;;;;0.10;0.10;;;7.20;99.90;;;;;;5070938;28;20512;-70
2022/02/20 00:09:22;;;;;;;0.20;0.20;;;7.20;99.90;;;;;;5069966;28;20155;-70
2022/02/20 00:11:47;;;;;;;0.10;0.10;;;7.20;99.90;;;;;;5071204;28;20058;-70
2022/02/20 00:14:13;;;;;;;8.38;1.90;;;7.20;99.90;;;;;;5070836;28;20016;-70
2022/02/20 00:16:39;;;;;;;0.00;0.00;;;7.30;99.90;;;;;;5069913;28;20377;-70
2022/02/20 00:19:05;;;;;;;10.75;1.23;;;7.30;99.90;;;;;;5070751;28;20477;-69
2022/02/20 00:21:31;;;;;;;0.00;0.00;;;7.20;99.90;;;;;;5073495;28;20032;-70
2022/02/20 00:23:57;;;;;;;0.00;0.00;;;7.30;99.90;;;;;;5074647;28;20115;-70
2022/02/20 00:26:22;;;;;;;0.00;0.00;;;7.30;99.90;;;;;;5074164;28;20107;-70
2022/02/20 00:28:48;;;;;;;0.00;0.00;;;7.30;99.90;;;;;;5074617;28;20040;-70
2022/02/20 00:31:14;;;;;;;0.10;0.10;;;7.30;99.90;;;;;;5074056;28;20111;-70
2022/02/20 00:33:40;;;;;;;0.20;0.20;;;7.30;99.90;;;;;;5074402;28;20036;-70
2022/02/20 00:36:06;;;;;;;0.00;0.00;;;7.30;99.90;;;;;;5074074;28;20106;-70
2022/02/20 00:38:31;;;;;;;0.00;0.00;;;7.40;99.90;;;;;;5073011;28;20031;-70
2022/02/20 00:40:57;;;;;;;4.40;2.63;;;7.30;99.90;;;;;;5074000;28;20115;-70
2022/02/20 00:43:23;;;;;;;0.03;0.03;;;7.40;99.90;;;;;;5074080;28;20123;-70
2022/02/20 00:45:49;;;;;;;0.00;0.00;;;7.40;99.90;;;;;;5073063;28;20032;-70
2022/02/20 00:48:19;;;;;;;0.10;0.10;;;7.50;99.90;;;;;;5072670;28;20072;-70
2022/02/20 00:50:45;;;;;;;0.00;0.00;;;7.50;99.90;;;;;;5074004;28;20457;-70
2022/02/20 00:53:11;;;;;;;0.10;0.10;;;7.50;99.90;;;;;;5055810;28;20473;-70
2022/02/20 00:55:37;;;;;;;0.00;0.00;;;7.60;99.90;;;;;;5073537;28;20051;-70
2022/02/20 00:58:03;;;;;;;0.03;0.03;;;7.50;99.90;;;;;;5074094;28;20032;-70
2022/02/20 01:00:29;;;;;;;0.25;0.20;;;7.50;99.90;;;;;;5072575;28;20358;-70
2022/02/20 01:02:55;;;;;;;0.35;0.35;;;7.50;99.90;;;;;;5073538;28;20032;-70
2022/02/20 01:05:20;;;;;;;0.00;0.00;;;7.60;99.90;;;;;;5073292;28;20115;-70
2022/02/20 01:07:46;;;;;;;0.10;0.10;;;7.60;99.90;;;;;;5073755;28;20075;-69
2022/02/20 01:10:16;;;;;;;1.10;1.00;;;7.60;99.90;;;;;;5072615;28;20037;-69
2022/02/20 01:12:43;;;;;;;0.00;0.00;;;7.60;99.90;;;;;;5073569;28;20138;-70
2022/02/20 01:15:10;;;;;;;0.00;0.00;;;7.60;99.90;;;;;;5072242;28;20083;-70
2022/02/20 01:17:37;;;;;;;0.10;0.10;;;7.60;99.90;;;;;;5072152;28;20477;-71
2022/02/20 01:20:04;;;;;;;0.00;0.00;;;7.70;99.90;;;;;;5073433;28;20036;-70
2022/02/20 01:22:31;;;;;;;0.10;0.10;;;7.70;99.90;;;;;;5071934;28;20031;-69
2022/02/20 01:24:56;;;;;;;0.00;0.00;;;7.70;99.90;;;;;;5073286;28;20397;-70
2022/02/20 01:27:23;;;;;;;0.10;0.10;;;7.60;99.90;;;;;;5072979;28;20029;-69
2022/02/20 01:29:49;;;;;;;0.00;0.00;;;7.60;99.90;;;;;;5073088;28;20505;-69
2022/02/20 01:32:15;;;;;;;0.00;0.00;;;7.60;99.90;;;;;;5072815;28;20064;-69
2022/02/20 01:34:41;;;;;;;0.00;0.00;;;7.60;99.90;;;;;;5071363;28;20036;-69
2022/02/20 01:37:07;;;;;;;0.00;0.00;;;7.70;99.90;;;;;;5073282;28;20381;-69
2022/02/20 01:39:33;;;;;;;0.00;0.00;;;7.70;99.90;;;;;;5072836;28;20033;-69
2022/02/20 01:41:59;;;;;;;0.10;0.10;;;7.70;99.90;;;;;;5071887;28;20060;-69
2022/02/20 01:44:25;;;;;;;1.65;1.55;;;7.70;99.90;;;;;;5072712;28;20038;-69
2022/02/20 01:46:52;;;;;;;0.10;0.10;;;7.70;99.90;;;;;;5072634;28;20048;-69
2022/02/20 01:49:20;;;;;;;20.38;1.85;;;7.70;99.90;;;;;;5071580;28;20082;-69
2022/02/20 01:51:46;;;;;;;0.00;0.00;;;7.70;99.90;;;;;;5073029;28;20029;-70
2022/02/20 01:54:12;;;;;;;0.00;0.00;;;7.70;99.90;;;;;;5072496;28;20027;-70
2022/02/20 01:56:38;;;;;;;0.00;0.00;;;7.70;99.90;;;;;;5054810;28;20044;-70
2022/02/20 01:59:05;;;;;;;0.00;0.00;;;7.70;99.90;;;;;;5072909;28;20036;-70
2022/02/20 02:01:31;;;;;;;0.00;0.00;;;7.70;99.90;;;;;;5072688;28;20077;-69
2022/02/20 02:03:57;;;;;;;0.00;0.00;;;7.70;99.90;;;;;;5072659;28;20032;-69
2022/02/20 02:06:23;;;;;;;0.00;0.00;;;7.60;99.90;;;;;;5072581;28;20479;-69
2022/02/20 02:08:49;;;;;;;0.00;0.00;;;7.70;99.90;;;;;;5072571;28;20040;-69
2022/02/20 02:11:16;;;;;;;0.00;0.00;;;7.70;99.90;;;;;;5072348;28;20370;-69
2022/02/20 02:13:41;;;;;;;0.00;0.00;;;7.70;99.90;;;;;;5072535;28;20040;-69
2022/02/20 02:16:07;;;;;;;0.00;0.00;;;7.70;99.90;;;;;;5072225;28;20044;-69
2022/02/20 02:18:33;;;;;;;0.00;0.00;;;7.60;99.90;;;;;;5072373;28;20051;-70
2022/02/20 02:20:59;;;;;;;0.65;0.65;;;7.60;99.90;;;;;;5072451;28;20095;-69
2022/02/20 02:23:25;;;;;;;0.00;0.00;;;7.60;99.90;;;;;;5072082;28;20020;-70
2022/02/20 02:25:56;;;;;;;0.00;0.00;;;7.60;99.90;;;;;;5072365;28;20514;-69
2022/02/20 02:28:22;;;;;;;0.00;0.00;;;7.70;99.90;;;;;;5072328;28;20021;-69
2022/02/20 02:30:48;;;;;;;0.00;0.00;;;7.70;99.90;;;;;;5070683;28;20119;-69
2022/02/20 02:33:34;;;;;;;0.00;0.00;;;7.60;99.90;;;;;;5070872;28;20138;-69
2022/02/20 02:36:04;;;;;;;0.00;0.00;;;7.50;99.90;;;;;;5070359;28;20032;-69
2022/02/20 02:38:29;;;;;;;0.00;0.00;;;7.60;99.90;;;;;;5071991;28;20081;-69
2022/02/20 02:41:04;;;;;;;0.00;0.00;;;7.50;99.90;;;;;;5071850;28;20486;-69
2022/02/20 02:43:30;;;;;;;0.08;0.08;;;7.50;99.90;;;;;;5070141;28;20755;-69
2022/02/20 02:45:56;;;;;;;0.00;0.00;;;7.60;99.90;;;;;;5070585;28;20039;-69
2022/02/20 02:48:22;;;;;;;0.00;0.00;;;7.60;99.90;;;;;;5071341;28;20048;-69
2022/02/20 02:50:49;;;;;;;0.00;0.00;;;7.60;99.90;;;;;;5053667;28;20028;-69
2022/02/20 02:53:15;;;;;;;0.00;0.00;;;7.60;99.90;;;;;;5071657;28;20377;-69
2022/02/20 02:55:47;;;;;;;4.57;1.45;;;7.50;99.90;;;;;;5070345;28;20086;-69
2022/02/20 02:58:23;;;;;;;0.00;0.00;;;7.50;99.90;;;;;;5070347;28;20029;-69
2022/02/20 03:00:50;;;;;;;0.30;0.30;;;7.50;99.90;;;;;;5071658;28;20051;-69
2022/02/20 03:03:16;;;;;;;0.00;0.00;;;7.50;99.90;;;;;;5070490;28;20033;-69
2022/02/20 03:05:42;;;;;;;0.00;0.00;;;7.50;99.90;;;;;;5071824;28;20098;-69
2022/02/20 03:08:08;;;;;;;0.00;0.00;;;7.40;99.90;;;;;;5071555;28;20029;-69
2022/02/20 03:10:34;;;;;;;0.20;0.20;;;7.40;99.90;;;;;;5053282;28;20039;-69
2022/02/20 03:13:00;;;;;;;0.00;0.00;;;7.40;99.90;;;;;;5070196;28;20115;-68
2022/02/20 03:15:26;;;;;;;0.08;0.08;;;7.40;99.90;;;;;;5070057;28;20115;-69
2022/02/20 03:17:52;;;;;;;0.20;0.20;;;7.50;99.90;;;;;;5070232;28;20423;-69
2022/02/20 03:20:17;;;;;;;0.00;0.00;;;7.40;99.90;;;;;;5071457;28;20033;-69
2022/02/20 03:22:43;;;;;;;0.10;0.10;;;7.30;99.90;;;;;;5069903;28;20106;-69
2022/02/20 03:25:09;;;;;;;0.00;0.00;;;7.30;99.90;;;;;;5071359;28;20048;-69
2022/02/20 03:27:35;;;;;;;0.00;0.00;;;7.30;99.90;;;;;;5071540;28;20033;-69
2022/02/20 03:30:01;;;;;;;2.55;1.05;;;7.40;99.90;;;;;;5071077;28;20059;-68
2022/02/20 03:32:27;;;;;;;0.00;0.00;;;7.30;99.90;;;;;;5071470;28;20029;-70
2022/02/20 03:34:52;;;;;;;0.00;0.00;;;7.40;99.90;;;;;;5071288;28;20131;-69
2022/02/20 03:37:18;;;;;;;1.90;1.45;;;7.40;99.90;;;;;;5086833;28;20075;-70
2022/02/20 03:39:44;;;;;;;0.00;0.00;;;7.30;99.90;;;;;;5069781;28;20032;-70
2022/02/20 03:42:10;;;;;;;0.00;0.00;;;7.30;99.90;;;;;;5070046;28;20028;-69
2022/02/20 03:44:36;;;;;;;0.00;0.00;;;7.30;99.90;;;;;;5053060;28;20154;-70
2022/02/20 03:47:02;;;;;;;0.00;0.00;;;7.20;99.90;;;;;;5070896;28;20060;-70
2022/02/20 03:49:27;;;;;;;0.10;0.10;;;7.20;99.90;;;;;;5071286;28;20032;-70
2022/02/20 03:51:53;;;;;;;0.00;0.00;;;7.10;99.90;;;;;;5071156;28;20032;-69
2022/02/20 03:54:19;;;;;;;0.03;0.03;;;7.10;99.90;;;;;;5070853;28;20036;-69
2022/02/20 03:56:45;;;;;;;0.00;0.00;;;7.10;99.90;;;;;;5075173;28;20037;-69
2022/02/20 03:59:10;;;;;;;0.00;0.00;;;7.20;99.90;;;;;;5074852;28;20021;-69
2022/02/20 04:01:36;;;;;;;0.00;0.00;;;7.20;99.90;;;;;;5073793;28;20043;-69
2022/02/20 04:04:02;;;;;;;0.20;0.20;;;7.20;99.90;;;;;;5074745;28;20025;-69
2022/02/20 04:06:28;;;;;;;0.08;0.08;;;7.30;99.90;;;;;;5074567;28;20362;-69
2022/02/20 04:08:54;;;;;;;0.00;0.00;;;7.40;99.90;;;;;;5074506;28;20124;-69
2022/02/20 04:11:19;;;;;;;0.00;0.00;;;7.30;99.90;;;;;;5073214;28;20032;-69
2022/02/20 04:13:45;;;;;;;0.00;0.00;;;7.30;99.90;;;;;;5090337;28;20071;-69
2022/02/20 04:16:11;;;;;;;0.00;0.00;;;7.20;99.90;;;;;;5073490;28;20052;-69
2022/02/20 04:18:37;;;;;;;0.00;0.00;;;7.10;99.90;;;;;;5074479;28;20032;-69
2022/02/20 04:21:03;;;;;;;0.00;0.00;;;7.00;99.90;;;;;;5074298;28;20123;-69
2022/02/20 04:23:30;;;;;;;0.00;0.00;;;7.00;99.90;;;;;;5074267;28;20052;-69
2022/02/20 04:26:01;;;;;;;0.10;0.10;;;7.00;99.90;;;;;;5074518;28;20036;-71
2022/02/20 04:28:32;;;;;;;5.10;3.35;;;7.00;99.90;;;;;;5072810;28;20051;-72
2022/02/20 04:30:58;;;;;;;0.00;0.00;;;7.00;99.90;;;;;;5072822;28;20052;-70
2022/02/20 04:33:24;;;;;;;0.10;0.10;;;7.00;99.90;;;;;;5074476;28;20082;-70
2022/02/20 04:35:50;;;;;;;0.00;0.00;;;7.00;99.90;;;;;;5073814;28;20024;-70
2022/02/20 04:38:16;;;;;;;0.00;0.00;;;7.00;99.90;;;;;;5074212;28;20039;-70
2022/02/20 04:40:42;;;;;;;0.93;0.85;;;7.10;99.90;;;;;;5073843;28;20553;-70
2022/02/20 04:43:08;;;;;;;0.00;0.00;;;7.10;99.90;;;;;;5073028;28;20060;-70
2022/02/20 04:45:33;;;;;;;0.00;0.00;;;7.30;99.90;;;;;;5074110;28;20497;-70
2022/02/20 04:47:59;;;;;;;0.00;0.00;;;7.20;99.90;;;;;;5073816;28;20056;-70
2022/02/20 04:50:25;;;;;;;0.00;0.00;;;7.20;99.90;;;;;;5074010;28;20060;-70
2022/02/20 04:52:50;;;;;;;0.10;0.10;;;7.20;99.90;;;;;;5072781;28;20036;-70
2022/02/20 04:55:16;;;;;;;0.00;0.00;;;7.10;99.90;;;;;;5074067;28;20347;-70
2022/02/20 04:57:42;;;;;;;0.05;0.05;;;7.20;99.90;;;;;;5073476;28;20033;-71
2022/02/20 05:00:11;;;;;;;0.00;0.00;;;7.10;99.90;;;;;;5073769;28;20033;-73
2022/02/20 05:02:36;;;;;;;22.23;1.10;;;7.10;99.90;;;;;;5072293;28;20107;-68
2022/02/20 05:05:03;;;;;;;0.00;0.00;;;7.20;99.90;;;;;;5055736;28;20049;-69
2022/02/20 05:07:31;;;;;;;0.00;0.00;;;7.20;99.90;;;;;;5072674;28;20036;-69
2022/02/20 05:09:57;;;;;;;0.00;0.00;;;7.20;99.90;;;;;;5073824;28;20440;-69
2022/02/20 05:12:24;;;;;;;0.00;0.00;;;7.10;99.90;;;;;;5073247;28;20120;-69
2022/02/20 05:14:49;;;;;;;0.20;0.20;;;7.10;99.90;;;;;;5072274;28;20481;-70
2022/02/20 05:17:17;;;;;;;0.80;0.80;;;7.20;99.90;;;;;;5073688;28;20028;-69
2022/02/20 05:19:43;;;;;;;0.00;0.00;;;7.10;99.90;;;;;;5073427;28;20487;-69
2022/02/20 05:22:09;;;;;;;0.08;0.08;;;7.00;99.90;;;;;;5073450;28;20477;-69
2022/02/20 05:24:34;;;;;;;0.00;0.00;;;7.10;99.90;;;;;;5071866;28;20086;-69
2022/02/20 05:27:00;;;;;;;0.00;0.00;;;7.10;99.90;;;;;;5055220;28;20028;-69
2022/02/20 05:29:26;;;;;;;0.00;0.00;;;7.20;99.90;;;;;;5072979;28;20033;-69
2022/02/20 05:31:52;;;;;;;0.00;0.00;;;7.20;99.90;;;;;;5072864;28;20036;-70
2022/02/20 05:34:17;;;;;;;0.00;0.00;;;7.20;99.90;;;;;;5072963;28;20025;-69
2022/02/20 05:36:43;;;;;;;0.00;0.00;;;7.20;99.90;;;;;;5072804;28;20040;-70
2022/02/20 05:39:09;;;;;;;0.10;0.10;;;7.30;99.90;;;;;;5072660;28;20028;-70
2022/02/20 05:41:34;;;;;;;0.00;0.00;;;7.20;99.90;;;;;;5073033;28;20033;-70
2022/02/20 05:44:00;;;;;;;0.00;0.00;;;7.30;99.90;;;;;;5071804;28;20392;-70
2022/02/20 05:46:26;;;;;;;0.10;0.10;;;7.30;99.90;;;;;;5071724;28;20060;-69
2022/02/20 05:48:52;;;;;;;0.00;0.00;;;7.20;99.90;;;;;;5071250;28;20044;-71
2022/02/20 05:51:18;;;;;;;0.00;0.00;;;7.30;99.90;;;;;;5073038;28;20034;-69
2022/02/20 05:53:43;;;;;;;0.00;0.00;;;7.20;99.90;;;;;;5072585;28;20124;-70
2022/02/20 05:56:09;;;;;;;0.10;0.10;;;7.10;99.90;;;;;;5072739;28;20040;-70
2022/02/20 05:58:36;;;;;;;0.00;0.00;;;7.10;99.90;;;;;;5072682;28;20052;-70
2022/02/20 06:01:02;;;;;;;0.00;0.00;;;7.00;99.90;;;;;;5072579;28;20028;-70
2022/02/20 06:03:28;;;;;;;0.00;0.00;;;7.00;99.90;;;;;;5072415;28;20066;-69
2022/02/20 06:06:09;;;;;;;0.00;0.00;;;7.00;99.90;;;;;;5070950;28;20059;-70
2022/02/20 06:08:35;;;;;;;;;;;7.00;99.90;;;;;;5072474;28;20032;-68
2022/02/20 06:11:00;;;;;;;0.00;0.00;;;7.00;99.90;;;;;;5070960;28;19931;-70
2022/02/20 06:13:26;;;;;;;0.00;0.00;;;7.00;99.90;;;;;;5072528;28;20412;-69
2022/02/20 06:15:52;;;;;;;0.00;0.00;;;7.00;99.90;;;;;;5072283;28;20489;-69
2022/02/20 06:18:18;;;;;;;0.00;0.00;;;7.00;99.90;;;;;;5053653;28;20125;-70
2022/02/20 06:20:43;;;;;;;0.00;0.00;;;7.00;99.90;;;;;;5071960;28;20036;-70
2022/02/20 06:23:09;;;;;;;0.10;0.10;;;7.10;99.90;;;;;;5072338;28;20059;-70
2022/02/20 06:25:35;;;;;;;0.00;0.00;;;7.10;99.90;;;;;;5072042;28;20040;-69
2022/02/20 06:28:00;;;;;;;0.00;0.00;;;7.20;99.90;;;;;;5071992;28;20078;-69
2022/02/20 06:30:26;;;;;;;0.28;0.28;;;7.10;99.90;;;;;;5071657;28;20047;-70
2022/02/20 06:32:52;;;;;;;0.00;0.00;;;7.10;99.90;;;;;;5071636;28;20029;-68
2022/02/20 06:35:18;;;;;;;0.00;0.00;;;7.30;99.90;;;;;;5072040;28;20036;-70
2022/02/20 06:37:43;;;;;;;0.00;0.00;;;7.20;99.90;;;;;;5071902;28;20107;-70
2022/02/20 06:40:09;;;;;;;0.10;0.10;;;7.30;99.90;;;;;;5070351;28;20040;-68
2022/02/20 06:42:37;;;;;;;0.00;0.00;;;7.30;99.90;;;;;;5071619;28;20508;-65
2022/02/20 06:45:07;;;;;;;3.22;0.32;;;7.30;99.90;;;;;;5054046;28;20071;-81
2022/02/20 06:47:36;;;;;;;0.00;0.00;;;7.30;99.90;;;;;;5054330;28;20044;-83
2022/02/20 06:50:02;;;;;;;2.65;2.50;;;7.30;99.90;;;;;;5070580;28;20028;-67
2022/02/20 06:52:30;;;;;;;0.00;0.00;;;7.40;99.90;;;;;;5071762;28;20081;-77
2022/02/20 06:54:56;;;;;;;0.00;0.00;;;7.40;99.90;;;;;;5070114;28;20032;-84
2022/02/20 06:57:22;;;;;;;0.20;0.20;;;7.50;99.90;;;;;;5071588;28;20036;-80
2022/02/20 06:59:48;;;;;;;0.00;0.00;;;7.50;99.90;;;;;;5071401;28;20079;-79
2022/02/20 07:02:14;;;;;;;0.00;0.00;;;7.40;99.90;;;;;;5071777;28;20528;-78
2022/02/20 07:04:39;;;;;;;0.00;0.00;;;7.40;99.90;;;;;;5071413;28;20033;-80
2022/02/20 07:07:05;;;;;;;0.00;0.00;;;7.50;99.90;;;;;;5071712;28;20153;-78
2022/02/20 07:09:31;;;;;;;0.10;0.10;;;7.50;99.90;;;;;;5072459;28;20119;-62
2022/02/20 07:11:57;;;;;;;0.00;0.00;;;7.50;99.90;;;;;;5070281;28;20040;-63
2022/02/20 07:14:22;;;;;;;0.00;0.00;;;7.50;99.90;;;;;;5071346;28;20388;-76
2022/02/20 07:16:49;;;;;;;0.00;0.00;;;7.60;99.90;;;;;;5066289;28;20084;-71
2022/02/20 07:19:15;;;;;;;0.00;0.00;;;7.60;99.90;;;;;;5071313;28;20439;-70
2022/02/20 07:21:40;;;;;;;0.10;0.10;;;7.50;99.90;;;;;;5071243;28;20037;-71
2022/02/20 07:24:06;;;;;;;0.00;0.00;;;7.50;99.90;;;;;;5070003;28;20055;-66
2022/02/20 07:26:32;;;;;;;0.00;0.00;;;7.50;99.90;;;;;;5071444;28;20028;-66
2022/02/20 07:28:58;;;;;;;0.00;0.00;;;7.50;99.90;;;;;;5071885;28;20036;-71
2022/02/20 07:31:26;;;;;;;0.10;0.10;;;7.50;99.90;;;;;;5075129;28;20043;-72
2022/02/20 07:33:54;;;;;;;0.10;0.10;;;7.50;99.90;;;;;;5075083;28;20086;-67
2022/02/20 07:36:22;;;;;;;0.00;0.00;;;7.60;99.90;;;;;;5073722;28;20039;-78
2022/02/20 07:38:48;;;;;;;0.40;0.40;;;7.60;99.90;;;;;;5074862;28;20028;-67
2022/02/20 07:41:13;;;;;;;0.03;0.03;;;7.50;99.90;;;;;;5075082;28;20140;-66
2022/02/20 07:43:39;;;;;;;0.00;0.00;;;7.50;99.90;;;;;;5074736;28;20029;-76
2022/02/20 07:46:05;;;;;;;1.27;1.20;;;7.60;99.90;;;;;;5090969;28;20028;-68
2022/02/20 07:48:31;;;;;;;0.45;0.45;;;7.60;99.90;;;;;;5073360;28;20131;-69
2022/02/20 07:50:57;;;;;;;0.00;0.00;;;7.60;99.90;;;;;;5075030;28;20036;-74
2022/02/20 07:53:22;;;;;;;0.00;0.00;;;7.60;99.90;;;;;;5074669;28;20028;-64
2022/02/20 07:55:48;;;;;;;2.90;1.90;;;7.60;99.90;;;;;;5074619;28;20040;-65
2022/02/20 07:58:16;;;;;;;0.00;0.00;;;7.70;99.90;;;;;;5073409;28;20385;-64
2022/02/20 08:00:41;;;;;;;0.45;0.45;;;7.60;99.90;;;;;;5074426;28;20075;-67
2022/02/20 08:03:09;;;;;;;0.00;0.00;;;7.60;99.90;;;;;;5074853;28;20422;-64
2022/02/20 08:05:34;;;;;;;1.05;0.95;;;7.70;99.90;;;;;;5074280;28;20064;-64
2022/02/20 08:08:00;;;;;;;0.00;0.00;;;7.70;99.90;;;;;;5074141;28;20051;-63
2022/02/20 08:10:26;;;;;;;0.40;0.40;;;7.70;99.90;;;;;;5074248;28;20041;-64
2022/02/20 08:12:55;;;;;;;0.00;0.00;;;7.70;99.90;;;;;;5073627;28;20056;-65
2022/02/20 08:15:21;;;;;;;1.00;0.80;;;7.70;99.90;;;;;;5072927;28;20116;-69
2022/02/20 08:17:48;;;;;;;0.00;0.00;;;7.70;99.90;;;;;;5074407;28;20119;-69
2022/02/20 08:20:16;;;;;;;0.00;0.00;;;7.70;99.90;;;;;;5072754;28;20052;-69
2022/02/20 08:22:43;;;;;;;0.00;0.00;;;7.70;99.90;;;;;;5072911;28;20074;-69
2022/02/20 08:25:11;;;;;;;0.00;0.00;;;7.70;99.90;;;;;;5073289;28;20041;-70
2022/02/20 08:27:38;;;;;;;0.00;0.00;;;7.70;99.90;;;;;;5072843;28;20115;-68
2022/02/20 08:30:07;;;;;;;0.00;0.00;;;7.70;99.90;;;;;;5073921;28;20048;-69
2022/02/20 08:32:33;;;;;;;0.00;0.00;;;7.70;99.90;;;;;;5072944;28;20028;-69
2022/02/20 08:35:03;;;;;;;0.00;0.00;;;7.70;99.90;;;;;;5072508;28;20044;-69
2022/02/20 08:37:28;;;;;;;0.10;0.10;;;7.70;99.90;;;;;;5074049;28;20036;-69
2022/02/20 08:39:54;;;;;;;0.00;0.00;;;7.80;99.90;;;;;;5073835;28;20033;-70
2022/02/20 08:42:21;;;;;;;0.00;0.00;;;7.80;99.90;;;;;;5071962;28;20469;-70
2022/02/20 08:44:47;;;;;;;0.05;0.05;;;7.80;99.90;;;;;;5055536;28;20428;-71
2022/02/20 08:47:13;;;;;;;0.15;0.15;;;7.80;99.90;;;;;;5073648;28;20669;-70
2022/02/20 08:49:39;;;;;;;0.00;0.00;;;7.80;99.90;;;;;;5073444;28;20052;-70
2022/02/20 08:52:05;;;;;;;0.00;0.00;;;7.90;99.90;;;;;;5073924;28;20029;-70
2022/02/20 08:54:31;;;;;;;0.00;0.00;;;8.00;99.90;;;;;;5089109;28;20038;-70
2022/02/20 08:56:56;;;;;;;0.25;0.25;;;8.00;99.90;;;;;;5073439;28;20119;-70
2022/02/20 08:59:22;;;;;;;0.08;0.08;;;8.00;99.90;;;;;;5073805;28;20025;-70
2022/02/20 09:01:48;;;;;;;3.20;0.68;;;8.00;99.90;;;;;;5073293;28;20035;-69
2022/02/20 09:04:14;;;;;;;0.00;0.00;;;7.90;99.90;;;;;;5073842;28;20481;-68
2022/02/20 09:06:40;;;;;;;0.00;0.00;;;8.00;99.90;;;;;;5055425;28;20021;-68
2022/02/20 09:09:06;;;;;;;0.00;0.00;;;8.00;99.90;;;;;;5073358;28;20032;-69
2022/02/20 09:11:32;;;;;;;0.00;0.00;;;8.00;99.90;;;;;;5069190;28;20474;-68
2022/02/20 09:13:57;;;;;;;0.00;0.00;;;8.00;99.90;;;;;;5053308;28;20445;-69
2022/02/20 09:16:23;;;;;;;0.00;0.00;;;8.00;99.90;;;;;;5051782;28;20043;-68
2022/02/20 09:18:49;;;;;;;0.10;0.10;;;8.00;99.90;;;;;;5053407;28;20032;-68
2022/02/20 09:21:15;;;;;;;0.00;0.00;;;8.00;99.90;;;;;;5051736;28;20036;-68
2022/02/20 09:23:41;;;;;;;1.85;1.30;;;7.90;99.90;;;;;;5053073;28;20475;-67
2022/02/20 09:26:07;;;;;;;0.00;0.00;;;8.00;99.90;;;;;;5067299;28;20033;-68
2022/02/20 09:28:33;;;;;;;0.00;0.00;;;8.00;99.90;;;;;;5051596;28;20044;-69
2022/02/20 09:31:00;;;;;;;0.10;0.10;;;8.00;99.90;;;;;;5051411;28;20037;-69
2022/02/20 09:33:26;;;;;;;0.00;0.00;;;8.00;99.90;;;;;;5051561;28;20036;-68
2022/02/20 09:35:52;;;;;;;0.08;0.08;;;8.00;99.90;;;;;;5051214;28;20055;-70
2022/02/20 09:38:18;;;;;;;0.57;0.57;;;7.90;99.90;;;;;;5051561;28;20606;-69
2022/02/20 09:40:44;;;;;;;0.00;0.00;;;8.00;99.90;;;;;;5051392;28;20037;-69
2022/02/20 09:43:15;;;;;;;0.00;0.00;;;8.10;99.90;;;;;;5052613;28;20029;-69
2022/02/20 09:45:50;;;;;;;0.00;0.00;;;8.10;99.90;;;;;;5051366;28;20028;-69
2022/02/20 09:48:17;;;;;;;0.10;0.10;;;8.20;99.90;;;;;;5052563;28;20546;-68
2022/02/20 09:50:45;;;;;;;0.65;0.65;;;8.20;99.90;;;;;;5051398;28;20052;-68
2022/02/20 09:53:13;;;;;;;0.00;0.00;;;8.30;99.90;;;;;;5051400;28;20029;-69
2022/02/20 09:55:38;;;;;;;0.03;0.03;;;8.30;99.90;;;;;;5051250;28;20102;-70
2022/02/20 09:58:05;;;;;;;0.00;0.00;;;8.30;99.90;;;;;;5052435;28;20075;-70
2022/02/20 10:00:31;;;;;;;0.00;0.00;;;8.30;99.90;;;;;;5034618;28;20446;-71
2022/02/20 10:03:01;;;;;;;0.00;0.00;;;8.40;99.90;;;;;;5052120;28;20078;-69
2022/02/20 10:05:27;;;;;;;0.00;0.00;;;8.40;99.90;;;;;;5051302;28;20025;-69
2022/02/20 10:07:55;;;;;;;0.00;0.00;;;8.50;99.90;;;;;;5052541;28;20025;-70
2022/02/20 10:10:25;;;;;;;0.00;0.00;;;8.50;99.90;;;;;;5052377;28;20060;-70
2022/02/20 10:13:04;;;;;;;0.00;0.00;;;8.50;99.90;;;;;;5057083;28;20047;-70
2022/02/20 10:15:36;;;;;;;0.00;0.00;;;8.50;99.90;;;;;;5071948;28;20397;-70
2022/02/20 10:18:17;;;;;;;0.00;0.00;;;8.60;99.90;;;;;;5070963;28;20040;-70
2022/02/20 10:20:44;;;;;;;0.00;0.00;;;8.60;99.90;;;;;;5071126;28;20047;-70
2022/02/20 10:23:13;;;;;;;0.00;0.00;;;8.70;99.90;;;;;;5070918;28;20031;-71
2022/02/20 10:25:40;;;;;;;0.00;0.00;;;8.70;99.90;;;;;;5070725;28;20554;-70
2022/02/20 10:28:07;;;;;;;0.00;0.00;;;8.70;99.90;;;;;;5070409;28;20040;-70
2022/02/20 10:30:34;;;;;;;0.10;0.10;;;8.80;99.90;;;;;;5072058;28;20037;-70
2022/02/20 10:33:10;;;;;;;0.00;0.00;;;8.70;99.90;;;;;;5071677;28;20085;-70
2022/02/20 10:35:40;;;;;;;0.00;0.00;;;8.70;99.90;;;;;;5070551;28;20032;-70
2022/02/20 10:38:20;;;;;;;0.00;0.00;;;8.70;99.90;;;;;;5071680;28;20032;-70
2022/02/20 10:40:50;;;;;;;0.00;0.00;;;8.80;99.90;;;;;;5054636;28;20036;-70
2022/02/20 10:43:43;;;;;;;0.00;0.00;;;8.80;99.90;;;;;;5071148;28;20036;-69
2022/02/20 10:46:12;;;;;;;0.00;0.00;;;8.80;99.90;;;;;;5069563;28;20051;-73
2022/02/20 10:48:53;;;;;;;0.35;0.35;;;8.80;99.90;;;;;;5070244;28;20713;-72
2022/02/20 10:51:20;;;;;;;0.07;0.07;;;8.80;99.90;;;;;;5071680;28;20393;-73
2022/02/20 10:53:50;;;;;;;0.00;0.00;;;8.80;99.90;;;;;;5070198;28;20111;-73
2022/02/20 10:56:16;;;;;;;0.00;0.00;;;8.90;99.90;;;;;;5053682;28;20025;-70
2022/02/20 10:58:51;;;;;;;0.00;0.00;;;8.90;99.90;;;;;;5070503;28;20044;-69
2022/02/20 11:01:25;;;;;;;0.03;0.03;;;8.90;99.90;;;;;;5070229;28;20032;-69
2022/02/20 11:04:01;;;;;;;0.00;0.00;;;9.00;99.90;;;;;;5069206;28;20405;-69
2022/02/20 11:06:29;;;;;;;0.00;0.00;;;9.00;99.90;;;;;;5064532;28;20047;-69
2022/02/20 11:08:56;;;;;;;0.08;0.08;;;9.10;99.90;;;;;;5071180;28;20116;-67
2022/02/20 11:11:39;;;;;;;0.00;0.00;;;9.10;99.90;;;;;;5071589;28;20028;-67
2022/02/20 11:14:14;;;;;;;0.00;0.00;;;9.10;99.90;;;;;;5070092;28;20033;-67
2022/02/20 11:16:52;;;;;;;0.00;0.00;;;9.20;99.90;;;;;;5071695;28;20033;-71
2022/02/20 11:19:24;;;;;;;0.30;0.30;;;9.20;99.90;;;;;;5071247;28;20104;-67
2022/02/20 11:21:58;;;;;;;0.00;0.00;;;9.30;99.90;;;;;;5068080;28;20029;-68
2022/02/20 11:24:30;;;;;;;0.00;0.00;;;9.30;99.90;;;;;;5070267;28;20049;-72
2022/02/20 11:27:01;;;;;;;0.00;0.00;;;9.30;99.90;;;;;;5070955;28;20059;-67
2022/02/20 11:29:27;;;;;;;0.00;0.00;;;9.30;99.90;;;;;;5069987;28;20042;-68
2022/02/20 11:31:54;;;;;;;0.00;0.00;;;9.30;99.90;;;;;;5070980;28;20086;-75
2022/02/20 11:34:21;;;;;;;0.00;0.00;;;9.30;99.90;;;;;;5069874;28;20040;-69
2022/02/20 11:36:56;;;;;;;0.00;0.00;;;9.30;99.90;;;;;;5069873;28;20115;-77
2022/02/20 11:39:24;;;;;;;0.00;0.00;;;9.30;99.90;;;;;;5069765;28;20119;-69
2022/02/20 11:42:15;;;;;;;0.00;0.00;;;9.30;99.90;;;;;;5071251;28;20123;-69
2022/02/20 11:45:05;;;;;;;0.10;0.10;;;9.30;99.90;;;;;;5071339;28;20060;-68
2022/02/20 11:47:34;;;;;;;0.00;0.00;;;9.30;99.90;;;;;;5070605;28;20044;-68
2022/02/20 11:50:17;;;;;;;0.00;0.00;;;9.30;99.90;;;;;;5071006;28;20040;-66
2022/02/20 11:52:48;;;;;;;0.00;0.00;;;9.20;99.90;;;;;;5070948;28;20068;-71
2022/02/20 11:55:30;;;;;;;0.00;0.00;;;9.30;99.90;;;;;;5071067;28;20466;-65
2022/02/20 11:58:16;;;;;;;0.00;0.00;;;9.30;99.90;;;;;;5071245;28;20033;-67
2022/02/20 12:00:57;;;;;;;0.20;0.20;;;9.30;99.90;;;;;;5070841;28;20521;-67
2022/02/20 12:03:30;;;;;;;0.00;0.00;;;9.30;99.90;;;;;;5070979;28;20041;-66
2022/02/20 12:06:14;;;;;;;0.00;0.00;;;9.30;99.90;;;;;;5069504;28;20055;-63
2022/02/20 12:08:46;;;;;;;0.00;0.00;;;9.30;99.90;;;;;;5070858;28;20094;-65
2022/02/20 12:11:26;;;;;;;0.00;0.00;;;9.20;99.90;;;;;;5069419;28;20039;-69
2022/02/20 12:13:57;;;;;;;0.00;0.00;;;9.30;99.90;;;;;;5069840;28;20508;-67
2022/02/20 12:16:32;;;;;;;0.00;0.00;;;9.30;99.90;;;;;;5072183;28;20527;-72
2022/02/20 12:19:21;;;;;;;0.00;0.00;;;9.30;99.90;;;;;;5074340;28;20071;-73
2022/02/20 12:22:05;;;;;;;0.10;0.10;;;9.30;99.90;;;;;;5074442;28;20032;-68
2022/02/20 12:24:50;;;;;;;0.00;0.00;;;9.30;99.90;;;;;;5074379;28;20086;-70
2022/02/20 12:27:20;;;;;;;0.00;0.00;;;9.40;99.90;;;;;;5073227;28;20113;-70
2022/02/20 12:29:50;;;;;;;0.00;0.00;;;9.50;99.90;;;;;;5074133;28;20050;-69
2022/02/20 12:32:30;;;;;;;0.00;0.00;;;9.60;99.90;;;;;;5074336;28;20024;-70
2022/02/20 12:35:15;;;;;;;0.00;0.00;;;9.70;99.90;;;;;;5057105;28;20550;-69
2022/02/20 12:37:55;;;;;;;0.00;0.00;;;9.80;99.90;;;;;;5072900;28;20036;-70
2022/02/20 12:40:24;;;;;;;0.00;0.00;;;9.90;99.90;;;;;;5074048;28;20078;-68
2022/02/20 12:42:59;;;;;;;0.00;0.00;;;10.00;99.90;;;;;;5073728;28;20047;-70
2022/02/20 12:45:32;;;;;;;0.00;0.00;;;10.00;99.90;;;;;;5073864;28;20499;-71
2022/02/20 12:48:01;;;;;;;0.00;0.00;;;10.00;99.90;;;;;;5072389;28;20056;-70
2022/02/20 12:50:33;;;;;;;0.00;0.00;;;10.00;99.90;;;;;;5074033;28;20090;-68
2022/02/20 12:53:00;;;;;;;0.00;0.00;;;10.00;99.90;;;;;;5072550;28;20115;-70
2022/02/20 12:55:26;;;;;;;0.00;0.00;;;10.00;99.90;;;;;;5073439;28;20078;-70
2022/02/20 12:57:59;;;;;;;0.00;0.00;;;10.00;99.90;;;;;;5073768;28;20532;-70
2022/02/20 13:00:30;;;;;;;0.00;0.00;;;10.00;99.90;;;;;;5074004;28;20035;-69
2022/02/20 13:02:56;;;;;;;0.00;0.00;;;9.90;99.90;;;;;;5072513;28;20033;-66